sensor_id;sensor_type;location;lat;lon;timestamp;pressure;altitude;pressure_sealevel;temperature;humidity
73821;BME280;62150;43.582;1.456;2023-12-14T04:38:52;100458.84;;;8.94;100.00
73821;BME280;62150;43.582;1.456;2023-12-14T04:41:19;100452.06;;;9.23;100.00
73821;BME280;62150;43.582;1.456;2023-12-14T04:43:47;100444.50;;;9.18;100.00
73821;BME280;62150;43.582;1.456;2023-12-14T04:46:14;100443.94;;;9.36;100.00
73821;BME280;62150;43.582;1.456;2023-12-14T04:48:42;100439.78;;;9.62;100.00
73821;BME280;62150;43.582;1.456;2023-12-14T04:51:12;100444.41;;;9.51;100.00
73821;BME280;62150;43.582;1.456;2023-12-14T04:53:40;100436.56;;;9.27;100.00
73821;BME280;62150;43.582;1.456;2023-12-14T04:56:12;100453.69;;;9.55;100.00
73821;BME280;62150;43.582;1.456;2023-12-14T04:58:39;100449.00;;;9.39;100.00
73821;BME280;62150;43.582;1.456;2023-12-14T05:01:07;100461.78;;;9.41;100.00
73821;BME280;62150;43.582;1.456;2023-12-14T05:03:35;100463.69;;;9.64;100.00
73821;BME280;62150;43.582;1.456;2023-12-14T05:06:03;100463.81;;;9.59;100.00
73821;BME280;62150;43.582;1.456;2023-12-14T05:08:31;100464.59;;;9.33;100.00
73821;BME280;62150;43.582;1.456;2023-12-14T05:10:58;100466.91;;;9.12;100.00
73821;BME280;62150;43.582;1.456;2023-12-14T05:13:27;100482.56;;;9.01;100.00
73821;BME280;62150;43.582;1.456;2023-12-14T05:15:55;100481.84;;;9.56;100.00
73821;BME280;62150;43.582;1.456;2023-12-14T05:18:23;100486.47;;;9.44;100.00
73821;BME280;62150;43.582;1.456;2023-12-14T05:20:51;100496.81;;;9.11;100.00
73821;BME280;62150;43.582;1.456;2023-12-14T05:23:19;100490.84;;;9.40;100.00
73821;BME280;62150;43.582;1.456;2023-12-14T05:25:46;100491.59;;;9.14;100.00
73821;BME280;62150;43.582;1.456;2023-12-14T05:28:14;100500.47;;;9.33;100.00
73821;BME280;62150;43.582;1.456;2023-12-14T05:30:43;100501.69;;;9.20;100.00
73821;BME280;62150;43.582;1.456;2023-12-14T05:33:10;100502.69;;;8.84;100.00
73821;BME280;62150;43.582;1.456;2023-12-14T05:35:37;100509.81;;;9.03;100.00
73821;BME280;62150;43.582;1.456;2023-12-14T05:38:05;100515.38;;;9.19;100.00
73821;BME280;62150;43.582;1.456;2023-12-14T05:40:32;100522.34;;;9.14;100.00
73821;BME280;62150;43.582;1.456;2023-12-14T05:43:00;100521.06;;;8.99;100.00
73821;BME280;62150;43.582;1.456;2023-12-14T05:45:27;100533.81;;;9.01;100.00
73821;BME280;62150;43.582;1.456;2023-12-14T05:47:58;100548.06;;;9.11;100.00
73821;BME280;62150;43.582;1.456;2023-12-14T05:50:25;100553.19;;;9.11;100.00
73821;BME280;62150;43.582;1.456;2023-12-14T05:52:53;100560.06;;;8.77;100.00
73821;BME280;62150;43.582;1.456;2023-12-14T05:55:21;100575.38;;;8.80;100.00
73821;BME280;62150;43.582;1.456;2023-12-14T05:57:48;100571.63;;;8.93;100.00
73821;BME280;62150;43.582;1.456;2023-12-14T06:00:17;100578.88;;;8.76;100.00
73821;BME280;62150;43.582;1.456;2023-12-14T06:02:45;100581.31;;;9.14;100.00
73821;BME280;62150;43.582;1.456;2023-12-14T06:05:14;100590.56;;;9.20;100.00
73821;BME280;62150;43.582;1.456;2023-12-14T06:07:41;100601.25;;;9.03;100.00
73821;BME280;62150;43.582;1.456;2023-12-14T06:10:09;100603.69;;;9.40;100.00
73821;BME280;62150;43.582;1.456;2023-12-14T06:12:37;100609.25;;;9.56;100.00
73821;BME280;62150;43.582;1.456;2023-12-14T06:15:06;100619.19;;;9.03;100.00
73821;BME280;62150;43.582;1.456;2023-12-14T06:17:33;100615.16;;;8.94;100.00
73821;BME280;62150;43.582;1.456;2023-12-14T06:20:03;100616.66;;;9.01;100.00
73821;BME280;62150;43.582;1.456;2023-12-14T06:22:32;100621.97;;;8.95;100.00
73821;BME280;62150;43.582;1.456;2023-12-14T06:25:00;100633.91;;;9.29;100.00
73821;BME280;62150;43.582;1.456;2023-12-14T06:27:29;100635.91;;;9.18;100.00
73821;BME280;62150;43.582;1.456;2023-12-14T06:29:56;100637.38;;;8.94;100.00
73821;BME280;62150;43.582;1.456;2023-12-14T06:32:24;100650.47;;;9.16;100.00
73821;BME280;62150;43.582;1.456;2023-12-14T06:34:52;100660.47;;;9.26;100.00
73821;BME280;62150;43.582;1.456;2023-12-14T06:37:19;100659.09;;;9.13;100.00
73821;BME280;62150;43.582;1.456;2023-12-14T06:39:48;100660.56;;;8.88;100.00
73821;BME280;62150;43.582;1.456;2023-12-14T06:42:15;100654.47;;;8.93;100.00
73821;BME280;62150;43.582;1.456;2023-12-14T06:44:43;100663.88;;;8.93;100.00
73821;BME280;62150;43.582;1.456;2023-12-14T06:47:10;100677.03;;;9.13;100.00
73821;BME280;62150;43.582;1.456;2023-12-14T06:49:39;100676.97;;;8.81;100.00
73821;BME280;62150;43.582;1.456;2023-12-14T06:52:07;100677.50;;;9.29;100.00
73821;BME280;62150;43.582;1.456;2023-12-14T06:54:35;100685.94;;;9.34;100.00
73821;BME280;62150;43.582;1.456;2023-12-14T06:57:04;100696.31;;;8.94;100.00
73821;BME280;62150;43.582;1.456;2023-12-14T06:59:32;100695.47;;;8.93;100.00
73821;BME280;62150;43.582;1.456;2023-12-14T07:01:59;100697.94;;;8.98;100.00
73821;BME280;62150;43.582;1.456;2023-12-14T07:04:27;100706.97;;;8.76;100.00
73821;BME280;62150;43.582;1.456;2023-12-14T07:06:54;100711.03;;;8.84;100.00
73821;BME280;62150;43.582;1.456;2023-12-14T07:09:22;100722.13;;;8.85;100.00
73821;BME280;62150;43.582;1.456;2023-12-14T07:11:49;100724.50;;;8.94;100.00
73821;BME280;62150;43.582;1.456;2023-12-14T07:14:18;100727.38;;;8.79;100.00
73821;BME280;62150;43.582;1.456;2023-12-14T07:16:46;100734.91;;;9.23;100.00
73821;BME280;62150;43.582;1.456;2023-12-14T07:19:13;100737.34;;;8.92;100.00
73821;BME280;62150;43.582;1.456;2023-12-14T07:21:41;100735.81;;;8.84;100.00
73821;BME280;62150;43.582;1.456;2023-12-14T07:24:08;100741.56;;;8.95;100.00
73821;BME280;62150;43.582;1.456;2023-12-14T07:26:35;100746.22;;;9.15;100.00
73821;BME280;62150;43.582;1.456;2023-12-14T07:29:03;100752.03;;;9.21;100.00
73821;BME280;62150;43.582;1.456;2023-12-14T07:31:32;100751.75;;;9.33;100.00
73821;BME280;62150;43.582;1.456;2023-12-14T07:34:00;100759.69;;;9.23;100.00
73821;BME280;62150;43.582;1.456;2023-12-14T07:36:28;100755.91;;;9.37;100.00
73821;BME280;62150;43.582;1.456;2023-12-14T07:38:55;100760.06;;;9.75;100.00
73821;BME280;62150;43.582;1.456;2023-12-14T07:41:23;100768.50;;;9.47;100.00
73821;BME280;62150;43.582;1.456;2023-12-14T07:43:55;100782.69;;;8.89;100.00
73821;BME280;62150;43.582;1.456;2023-12-14T07:46:23;100791.09;;;9.32;100.00
73821;BME280;62150;43.582;1.456;2023-12-14T07:48:52;100798.31;;;9.15;100.00
73821;BME280;62150;43.582;1.456;2023-12-14T07:51:19;100807.50;;;8.87;100.00
73821;BME280;62150;43.582;1.456;2023-12-14T07:53:47;100812.88;;;8.74;100.00
73821;BME280;62150;43.582;1.456;2023-12-14T07:56:14;100803.09;;;8.52;100.00
73821;BME280;62150;43.582;1.456;2023-12-14T07:58:42;100814.53;;;8.77;100.00
73821;BME280;62150;43.582;1.456;2023-12-14T08:01:09;100829.94;;;8.76;100.00
73821;BME280;62150;43.582;1.456;2023-12-14T08:03:37;100826.19;;;8.92;100.00
73821;BME280;62150;43.582;1.456;2023-12-14T08:06:06;100834.69;;;8.94;100.00
73821;BME280;62150;43.582;1.456;2023-12-14T08:08:34;100844.31;;;9.21;100.00
73821;BME280;62150;43.582;1.456;2023-12-14T08:11:01;100845.16;;;9.59;100.00
73821;BME280;62150;43.582;1.456;2023-12-14T08:13:29;100854.34;;;9.32;100.00
73821;BME280;62150;43.582;1.456;2023-12-14T08:15:57;100852.56;;;8.97;100.00
73821;BME280;62150;43.582;1.456;2023-12-14T08:18:24;100851.84;;;9.29;100.00
73821;BME280;62150;43.582;1.456;2023-12-14T08:20:52;100858.03;;;9.57;100.00
73821;BME280;62150;43.582;1.456;2023-12-14T08:23:22;100863.44;;;9.06;100.00
73821;BME280;62150;43.582;1.456;2023-12-14T08:25:53;100866.16;;;9.37;100.00
73821;BME280;62150;43.582;1.456;2023-12-14T08:28:22;100872.44;;;9.26;100.00
73821;BME280;62150;43.582;1.456;2023-12-14T08:30:50;100870.94;;;9.16;100.00
73821;BME280;62150;43.582;1.456;2023-12-14T08:33:18;100877.28;;;8.99;100.00
73821;BME280;62150;43.582;1.456;2023-12-14T08:35:45;100880.63;;;9.41;100.00
73821;BME280;62150;43.582;1.456;2023-12-14T08:38:13;100888.63;;;9.28;100.00
73821;BME280;62150;43.582;1.456;2023-12-14T08:40:42;100884.81;;;9.05;100.00
73821;BME280;62150;43.582;1.456;2023-12-14T08:43:10;100894.97;;;9.50;100.00
73821;BME280;62150;43.582;1.456;2023-12-14T08:45:37;100902.47;;;9.19;100.00
73821;BME280;62150;43.582;1.456;2023-12-14T08:48:05;100911.47;;;9.37;100.00
73821;BME280;62150;43.582;1.456;2023-12-14T08:50:33;100910.38;;;9.08;100.00
73821;BME280;62150;43.582;1.456;2023-12-14T08:53:00;100918.44;;;9.33;100.00
73821;BME280;62150;43.582;1.456;2023-12-14T08:55:28;100926.69;;;9.04;100.00
73821;BME280;62150;43.582;1.456;2023-12-14T08:57:57;100920.09;;;8.94;100.00
73821;BME280;62150;43.582;1.456;2023-12-14T09:00:25;100934.09;;;9.20;100.00
73821;BME280;62150;43.582;1.456;2023-12-14T09:02:52;100931.28;;;9.32;100.00
73821;BME280;62150;43.582;1.456;2023-12-14T09:05:20;100934.09;;;9.20;100.00
73821;BME280;62150;43.582;1.456;2023-12-14T09:07:47;100937.34;;;9.66;100.00
73821;BME280;62150;43.582;1.456;2023-12-14T09:10:15;100942.06;;;9.46;100.00
73821;BME280;62150;43.582;1.456;2023-12-14T09:12:42;100944.81;;;9.37;100.00
73821;BME280;62150;43.582;1.456;2023-12-14T09:15:12;100939.50;;;9.46;100.00
73821;BME280;62150;43.582;1.456;2023-12-14T09:17:41;100954.00;;;9.07;100.00
73821;BME280;62150;43.582;1.456;2023-12-14T09:20:10;100949.75;;;9.06;100.00
73821;BME280;62150;43.582;1.456;2023-12-14T09:22:38;100956.19;;;9.25;100.00
73821;BME280;62150;43.582;1.456;2023-12-14T09:25:06;100965.06;;;9.51;100.00
73821;BME280;62150;43.582;1.456;2023-12-14T09:27:35;100969.72;;;9.33;100.00
73821;BME280;62150;43.582;1.456;2023-12-14T09:30:03;100980.63;;;9.41;100.00
73821;BME280;62150;43.582;1.456;2023-12-14T09:32:33;100975.31;;;9.51;100.00
73821;BME280;62150;43.582;1.456;2023-12-14T09:35:00;100990.75;;;9.48;100.00
73821;BME280;62150;43.582;1.456;2023-12-14T09:37:29;100987.97;;;9.18;100.00
73821;BME280;62150;43.582;1.456;2023-12-14T09:39:57;100999.34;;;9.47;100.00
73821;BME280;62150;43.582;1.456;2023-12-14T09:42:24;100992.75;;;9.73;100.00
73821;BME280;62150;43.582;1.456;2023-12-14T09:44:53;100995.41;;;9.30;100.00
73821;BME280;62150;43.582;1.456;2023-12-14T09:47:22;100992.78;;;9.72;100.00
73821;BME280;62150;43.582;1.456;2023-12-14T09:49:51;101002.91;;;9.39;100.00
73821;BME280;62150;43.582;1.456;2023-12-14T09:52:19;100995.19;;;9.39;100.00
73821;BME280;62150;43.582;1.456;2023-12-14T09:54:47;101014.25;;;9.29;100.00
73821;BME280;62150;43.582;1.456;2023-12-14T09:57:14;101024.38;;;9.35;100.00
73821;BME280;62150;43.582;1.456;2023-12-14T09:59:43;101032.66;;;9.48;100.00
73821;BME280;62150;43.582;1.456;2023-12-14T10:02:17;101038.75;;;9.43;100.00
73821;BME280;62150;43.582;1.456;2023-12-14T10:04:51;101040.88;;;9.65;100.00
73821;BME280;62150;43.582;1.456;2023-12-14T10:07:19;101051.41;;;9.50;100.00
73821;BME280;62150;43.582;1.456;2023-12-14T10:09:46;101054.69;;;9.58;100.00
73821;BME280;62150;43.582;1.456;2023-12-14T10:12:14;101057.56;;;9.41;100.00
73821;BME280;62150;43.582;1.456;2023-12-14T10:14:41;101060.72;;;9.56;100.00
73821;BME280;62150;43.582;1.456;2023-12-14T10:17:18;101064.97;;;9.57;100.00
73821;BME280;62150;43.582;1.456;2023-12-14T10:19:46;101058.00;;;10.03;100.00
73821;BME280;62150;43.582;1.456;2023-12-14T10:22:17;101063.38;;;9.93;100.00
73821;BME280;62150;43.582;1.456;2023-12-14T10:24:44;101069.13;;;9.64;100.00
73821;BME280;62150;43.582;1.456;2023-12-14T10:27:13;101074.31;;;9.61;100.00
73821;BME280;62150;43.582;1.456;2023-12-14T10:29:42;101070.94;;;9.99;100.00
73821;BME280;62150;43.582;1.456;2023-12-14T10:32:11;101067.47;;;9.60;100.00
73821;BME280;62150;43.582;1.456;2023-12-14T10:34:38;101072.59;;;10.01;100.00
73821;BME280;62150;43.582;1.456;2023-12-14T10:37:09;101079.44;;;9.61;100.00
73821;BME280;62150;43.582;1.456;2023-12-14T10:39:43;101071.31;;;10.21;100.00
73821;BME280;62150;43.582;1.456;2023-12-14T10:42:11;101077.16;;;9.87;100.00
73821;BME280;62150;43.582;1.456;2023-12-14T10:44:40;101079.56;;;9.55;100.00
73821;BME280;62150;43.582;1.456;2023-12-14T10:47:08;101082.41;;;9.83;100.00
73821;BME280;62150;43.582;1.456;2023-12-14T10:49:37;101084.25;;;9.76;100.00
73821;BME280;62150;43.582;1.456;2023-12-14T10:52:05;101084.00;;;9.88;100.00
73821;BME280;62150;43.582;1.456;2023-12-14T10:54:35;101083.63;;;9.65;100.00
73821;BME280;62150;43.582;1.456;2023-12-14T10:57:06;101080.72;;;9.80;100.00
73821;BME280;62150;43.582;1.456;2023-12-14T10:59:35;101086.75;;;9.79;100.00
73821;BME280;62150;43.582;1.456;2023-12-14T11:02:08;101084.31;;;9.71;100.00
73821;BME280;62150;43.582;1.456;2023-12-14T11:04:53;101089.00;;;9.94;100.00
73821;BME280;62150;43.582;1.456;2023-12-14T11:07:46;101092.50;;;9.90;100.00
73821;BME280;62150;43.582;1.456;2023-12-14T11:10:14;101097.16;;;9.71;100.00
73821;BME280;62150;43.582;1.456;2023-12-14T11:12:55;101096.94;;;9.82;100.00
73821;BME280;62150;43.582;1.456;2023-12-14T11:15:24;101100.16;;;9.92;100.00
73821;BME280;62150;43.582;1.456;2023-12-14T11:18:22;101099.34;;;9.91;100.00
73821;BME280;62150;43.582;1.456;2023-12-14T11:20:51;101101.31;;;9.77;100.00
73821;BME280;62150;43.582;1.456;2023-12-14T11:23:29;101110.38;;;9.52;100.00
73821;BME280;62150;43.582;1.456;2023-12-14T11:25:58;101115.69;;;9.86;100.00
73821;BME280;62150;43.582;1.456;2023-12-14T11:28:31;101108.84;;;9.86;100.00
73821;BME280;62150;43.582;1.456;2023-12-14T11:30:59;101113.50;;;10.07;100.00
73821;BME280;62150;43.582;1.456;2023-12-14T11:33:27;101118.69;;;10.06;100.00
73821;BME280;62150;43.582;1.456;2023-12-14T11:35:56;101121.41;;;10.00;100.00
73821;BME280;62150;43.582;1.456;2023-12-14T11:38:24;101107.31;;;9.78;100.00
73821;BME280;62150;43.582;1.456;2023-12-14T11:40:52;101123.44;;;9.84;100.00
73821;BME280;62150;43.582;1.456;2023-12-14T11:43:20;101112.78;;;10.41;100.00
73821;BME280;62150;43.582;1.456;2023-12-14T11:45:49;101107.16;;;10.27;100.00
73821;BME280;62150;43.582;1.456;2023-12-14T11:48:16;101105.38;;;10.29;100.00
73821;BME280;62150;43.582;1.456;2023-12-14T11:50:46;101121.75;;;10.25;100.00
73821;BME280;62150;43.582;1.456;2023-12-14T11:53:14;101123.94;;;10.01;100.00
73821;BME280;62150;43.582;1.456;2023-12-14T11:55:42;101116.94;;;10.08;100.00
73821;BME280;62150;43.582;1.456;2023-12-14T11:58:12;101105.97;;;10.01;100.00
73821;BME280;62150;43.582;1.456;2023-12-14T12:00:41;101112.38;;;10.22;100.00
73821;BME280;62150;43.582;1.456;2023-12-14T12:03:11;101120.13;;;10.21;100.00
73821;BME280;62150;43.582;1.456;2023-12-14T12:05:40;101124.03;;;10.37;100.00
73821;BME280;62150;43.582;1.456;2023-12-14T12:08:09;101115.31;;;10.44;100.00
73821;BME280;62150;43.582;1.456;2023-12-14T12:10:37;101117.56;;;10.21;100.00
73821;BME280;62150;43.582;1.456;2023-12-14T12:13:07;101113.22;;;10.23;100.00
73821;BME280;62150;43.582;1.456;2023-12-14T12:15:35;101098.22;;;10.41;100.00
73821;BME280;62150;43.582;1.456;2023-12-14T12:18:05;101105.00;;;10.46;100.00
73821;BME280;62150;43.582;1.456;2023-12-14T12:20:34;101098.06;;;10.49;100.00
73821;BME280;62150;43.582;1.456;2023-12-14T12:23:02;101101.72;;;10.74;100.00
73821;BME280;62150;43.582;1.456;2023-12-14T12:25:30;101091.63;;;10.31;100.00
73821;BME280;62150;43.582;1.456;2023-12-14T12:27:58;101105.81;;;10.48;100.00
73821;BME280;62150;43.582;1.456;2023-12-14T12:30:25;101102.25;;;10.53;100.00
73821;BME280;62150;43.582;1.456;2023-12-14T12:32:53;101102.44;;;10.44;100.00
73821;BME280;62150;43.582;1.456;2023-12-14T12:35:22;101108.06;;;10.61;100.00
73821;BME280;62150;43.582;1.456;2023-12-14T12:37:52;101102.63;;;10.38;100.00
73821;BME280;62150;43.582;1.456;2023-12-14T12:40:20;101106.94;;;10.73;100.00
73821;BME280;62150;43.582;1.456;2023-12-14T12:42:48;101096.16;;;10.57;100.00
73821;BME280;62150;43.582;1.456;2023-12-14T12:45:16;101098.47;;;10.68;100.00
73821;BME280;62150;43.582;1.456;2023-12-14T12:47:44;101092.06;;;10.84;100.00
73821;BME280;62150;43.582;1.456;2023-12-14T12:50:12;101092.09;;;10.83;100.00
73821;BME280;62150;43.582;1.456;2023-12-14T12:52:40;101086.38;;;10.73;100.00
73821;BME280;62150;43.582;1.456;2023-12-14T12:55:09;101098.34;;;10.74;100.00
73821;BME280;62150;43.582;1.456;2023-12-14T12:57:37;101097.56;;;10.70;100.00
73821;BME280;62150;43.582;1.456;2023-12-14T13:00:06;101102.53;;;10.77;100.00
73821;BME280;62150;43.582;1.456;2023-12-14T13:02:37;101104.25;;;10.40;100.00
73821;BME280;62150;43.582;1.456;2023-12-14T13:05:06;101102.09;;;10.59;100.00
73821;BME280;62150;43.582;1.456;2023-12-14T13:07:34;101105.19;;;10.73;100.00
73821;BME280;62150;43.582;1.456;2023-12-14T13:10:02;101109.59;;;10.68;100.00
73821;BME280;62150;43.582;1.456;2023-12-14T13:12:34;101113.19;;;10.61;100.00
73821;BME280;62150;43.582;1.456;2023-12-14T13:15:01;101127.31;;;10.79;100.00
73821;BME280;62150;43.582;1.456;2023-12-14T13:17:29;101131.25;;;10.94;100.00
73821;BME280;62150;43.582;1.456;2023-12-14T13:19:57;101129.56;;;10.93;100.00
73821;BME280;62150;43.582;1.456;2023-12-14T13:22:24;101138.13;;;10.58;100.00
73821;BME280;62150;43.582;1.456;2023-12-14T13:24:52;101134.50;;;10.66;100.00
73821;BME280;62150;43.582;1.456;2023-12-14T13:27:20;101139.84;;;10.57;100.00
73821;BME280;62150;43.582;1.456;2023-12-14T13:29:51;101145.63;;;10.28;100.00
73821;BME280;62150;43.582;1.456;2023-12-14T13:32:19;101137.72;;;10.39;100.00
73821;BME280;62150;43.582;1.456;2023-12-14T13:34:47;101149.88;;;10.68;100.00
73821;BME280;62150;43.582;1.456;2023-12-14T13:37:14;101147.41;;;10.63;100.00
73821;BME280;62150;43.582;1.456;2023-12-14T13:39:42;101151.00;;;10.56;100.00
73821;BME280;62150;43.582;1.456;2023-12-14T13:42:09;101155.69;;;10.74;100.00
73821;BME280;62150;43.582;1.456;2023-12-14T13:44:37;101155.19;;;10.60;100.00
73821;BME280;62150;43.582;1.456;2023-12-14T13:47:06;101162.63;;;10.72;100.00
73821;BME280;62150;43.582;1.456;2023-12-14T13:49:34;101155.63;;;10.78;100.00
73821;BME280;62150;43.582;1.456;2023-12-14T13:52:01;101159.59;;;10.55;100.00
73821;BME280;62150;43.582;1.456;2023-12-14T13:54:29;101171.22;;;10.71;100.00
73821;BME280;62150;43.582;1.456;2023-12-14T13:56:56;101176.72;;;10.55;100.00
73821;BME280;62150;43.582;1.456;2023-12-14T13:59:24;101180.34;;;10.46;100.00
73821;BME280;62150;43.582;1.456;2023-12-14T14:01:51;101172.22;;;10.64;100.00
73821;BME280;62150;43.582;1.456;2023-12-14T14:04:20;101170.47;;;10.66;100.00
73821;BME280;62150;43.582;1.456;2023-12-14T14:06:48;101170.66;;;10.59;100.00
73821;BME280;62150;43.582;1.456;2023-12-14T14:09:15;101171.41;;;10.62;100.00
73821;BME280;62150;43.582;1.456;2023-12-14T14:11:43;101184.50;;;10.52;100.00
73821;BME280;62150;43.582;1.456;2023-12-14T14:14:13;101179.09;;;10.64;100.00
73821;BME280;62150;43.582;1.456;2023-12-14T14:16:41;101182.56;;;10.61;100.00
73821;BME280;62150;43.582;1.456;2023-12-14T14:19:09;101184.16;;;10.67;100.00
73821;BME280;62150;43.582;1.456;2023-12-14T14:21:37;101180.97;;;10.93;100.00
73821;BME280;62150;43.582;1.456;2023-12-14T14:24:05;101191.00;;;10.68;100.00
73821;BME280;62150;43.582;1.456;2023-12-14T14:26:33;101193.16;;;10.48;100.00
73821;BME280;62150;43.582;1.456;2023-12-14T14:29:00;101197.25;;;10.56;100.00
73821;BME280;62150;43.582;1.456;2023-12-14T14:31:28;101198.94;;;10.57;100.00
73821;BME280;62150;43.582;1.456;2023-12-14T14:33:58;101202.97;;;10.30;100.00
73821;BME280;62150;43.582;1.456;2023-12-14T14:36:26;101207.63;;;10.89;100.00
73821;BME280;62150;43.582;1.456;2023-12-14T14:38:55;101218.66;;;10.57;100.00
73821;BME280;62150;43.582;1.456;2023-12-14T14:41:23;101223.00;;;10.53;100.00
73821;BME280;62150;43.582;1.456;2023-12-14T14:43:50;101218.78;;;10.51;100.00
73821;BME280;62150;43.582;1.456;2023-12-14T14:46:18;101234.03;;;10.58;100.00
73821;BME280;62150;43.582;1.456;2023-12-14T14:48:45;101227.34;;;10.51;100.00
73821;BME280;62150;43.582;1.456;2023-12-14T14:51:13;101224.00;;;10.85;100.00
73821;BME280;62150;43.582;1.456;2023-12-14T14:53:40;101223.34;;;11.12;100.00
73821;BME280;62150;43.582;1.456;2023-12-14T14:56:11;101227.94;;;10.64;100.00
73821;BME280;62150;43.582;1.456;2023-12-14T14:58:39;101244.09;;;10.69;100.00
73821;BME280;62150;43.582;1.456;2023-12-14T15:01:06;101242.19;;;10.77;100.00
73821;BME280;62150;43.582;1.456;2023-12-14T15:03:34;101245.03;;;11.03;100.00
73821;BME280;62150;43.582;1.456;2023-12-14T15:06:02;101247.28;;;10.79;100.00
73821;BME280;62150;43.582;1.456;2023-12-14T15:08:29;101259.41;;;10.73;100.00
73821;BME280;62150;43.582;1.456;2023-12-14T15:10:56;101261.81;;;10.80;100.00
73821;BME280;62150;43.582;1.456;2023-12-14T15:13:25;101266.34;;;10.70;100.00
73821;BME280;62150;43.582;1.456;2023-12-14T15:15:55;101267.16;;;11.09;100.00
73821;BME280;62150;43.582;1.456;2023-12-14T15:18:22;101282.41;;;10.78;100.00
73821;BME280;62150;43.582;1.456;2023-12-14T15:20:50;101290.00;;;10.84;100.00
73821;BME280;62150;43.582;1.456;2023-12-14T15:23:19;101284.75;;;11.27;100.00
73821;BME280;62150;43.582;1.456;2023-12-14T15:25:46;101295.28;;;10.78;100.00
73821;BME280;62150;43.582;1.456;2023-12-14T15:28:14;101292.28;;;10.98;100.00
73821;BME280;62150;43.582;1.456;2023-12-14T15:30:43;101299.56;;;10.78;100.00
73821;BME280;62150;43.582;1.456;2023-12-14T15:33:10;101297.78;;;10.81;100.00
73821;BME280;62150;43.582;1.456;2023-12-14T15:35:38;101302.72;;;10.90;100.00
73821;BME280;62150;43.582;1.456;2023-12-14T15:38:05;101297.41;;;10.99;100.00
73821;BME280;62150;43.582;1.456;2023-12-14T15:40:33;101304.59;;;10.84;100.00
73821;BME280;62150;43.582;1.456;2023-12-14T15:43:01;101308.66;;;10.94;100.00
73821;BME280;62150;43.582;1.456;2023-12-14T15:45:29;101308.41;;;11.06;100.00
73821;BME280;62150;43.582;1.456;2023-12-14T15:48:00;101311.69;;;10.72;100.00
73821;BME280;62150;43.582;1.456;2023-12-14T15:50:28;101313.56;;;10.64;100.00
73821;BME280;62150;43.582;1.456;2023-12-14T15:52:56;101308.28;;;11.09;100.00
73821;BME280;62150;43.582;1.456;2023-12-14T15:55:24;101304.47;;;10.90;100.00
73821;BME280;62150;43.582;1.456;2023-12-14T15:57:52;101311.16;;;10.97;100.00
73821;BME280;62150;43.582;1.456;2023-12-14T16:00:20;101312.09;;;10.53;100.00
73821;BME280;62150;43.582;1.456;2023-12-14T16:02:48;101318.59;;;10.70;100.00
73821;BME280;62150;43.582;1.456;2023-12-14T16:05:16;101318.88;;;10.55;100.00
73821;BME280;62150;43.582;1.456;2023-12-14T16:07:44;101320.06;;;10.81;100.00
73821;BME280;62150;43.582;1.456;2023-12-14T16:10:11;101324.66;;;10.66;100.00
73821;BME280;62150;43.582;1.456;2023-12-14T16:12:40;101333.84;;;10.78;100.00
73821;BME280;62150;43.582;1.456;2023-12-14T16:15:08;101319.19;;;10.82;100.00
73821;BME280;62150;43.582;1.456;2023-12-14T16:17:35;101315.00;;;10.78;100.00
73821;BME280;62150;43.582;1.456;2023-12-14T16:20:03;101318.31;;;10.41;100.00
73821;BME280;62150;43.582;1.456;2023-12-14T16:22:32;101324.41;;;10.79;100.00
73821;BME280;62150;43.582;1.456;2023-12-14T16:25:00;101338.16;;;10.76;100.00
73821;BME280;62150;43.582;1.456;2023-12-14T16:27:28;101349.59;;;10.15;100.00
73821;BME280;62150;43.582;1.456;2023-12-14T16:29:56;101354.94;;;10.52;100.00
73821;BME280;62150;43.582;1.456;2023-12-14T16:32:24;101362.44;;;10.63;100.00
73821;BME280;62150;43.582;1.456;2023-12-14T16:34:52;101360.16;;;10.48;100.00
73821;BME280;62150;43.582;1.456;2023-12-14T16:37:20;101358.56;;;10.40;100.00
73821;BME280;62150;43.582;1.456;2023-12-14T16:39:49;101374.16;;;10.31;100.00
73821;BME280;62150;43.582;1.456;2023-12-14T16:42:16;101377.03;;;10.61;100.00
73821;BME280;62150;43.582;1.456;2023-12-14T16:44:44;101376.09;;;10.65;100.00
73821;BME280;62150;43.582;1.456;2023-12-14T16:47:11;101386.91;;;10.81;100.00
73821;BME280;62150;43.582;1.456;2023-12-14T16:49:39;101392.25;;;10.71;100.00
73821;BME280;62150;43.582;1.456;2023-12-14T16:52:07;101392.66;;;10.49;100.00
73821;BME280;62150;43.582;1.456;2023-12-14T16:54:36;101392.59;;;10.53;100.00
73821;BME280;62150;43.582;1.456;2023-12-14T16:57:05;101388.63;;;10.37;100.00
73821;BME280;62150;43.582;1.456;2023-12-14T16:59:32;101390.38;;;10.35;100.00
73821;BME280;62150;43.582;1.456;2023-12-14T17:02:00;101391.00;;;10.46;100.00
73821;BME280;62150;43.582;1.456;2023-12-14T17:04:27;101397.03;;;10.44;100.00
73821;BME280;62150;43.582;1.456;2023-12-14T17:06:55;101390.88;;;10.54;100.00
73821;BME280;62150;43.582;1.456;2023-12-14T17:09:23;101399.94;;;10.27;100.00
73821;BME280;62150;43.582;1.456;2023-12-14T17:11:53;101399.16;;;10.22;100.00
73821;BME280;62150;43.582;1.456;2023-12-14T17:14:22;101407.25;;;10.47;100.00
73821;BME280;62150;43.582;1.456;2023-12-14T17:17:23;101412.06;;;10.65;100.00
73821;BME280;62150;43.582;1.456;2023-12-14T17:19:53;101424.97;;;10.63;100.00
73821;BME280;62150;43.582;1.456;2023-12-14T17:22:24;101422.88;;;10.82;100.00
73821;BME280;62150;43.582;1.456;2023-12-14T17:24:52;101423.16;;;10.68;100.00
73821;BME280;62150;43.582;1.456;2023-12-14T17:27:19;101438.63;;;10.65;100.00
73821;BME280;62150;43.582;1.456;2023-12-14T17:29:48;101442.78;;;10.25;100.00